« Back
NWS Peachtree City, Ga » Text Product » ATL Terminal Aerodrome Forecast


Printer-friendly Version
Current Version              Previous Versions:   1  2  3  4  5  6  7  8  9  

Terminal Aerodrome Forecast

837
FTUS42 KFFC 221900 AAA
TAFATL
TAF AMD
KATL 221948Z 2220/2324 31009KT P6SM VCSH SCT040
     FM230100 28006KT P6SM FEW070
     FM231500 32008KT P6SM SCT040 PROB30 2318/2322 -TSRA BKN035CB=

USA.gov is the U.S. government's official web portal to all federal, state and local government web resources and services.